| time (UTC) | temp F | wind direction | speed MPH | gust MPH | rain 1hr in | rain 24hr in | rain mn in | humidity % | barometer mb |
| 20260504184503 | 72 | 360 | 6.0 | 14.0 | 0.00 | 0.00 | 0.00 | 37 | 1010.6 |
| 20260504183603 | 72 | 360 | 6.0 | 12.0 | 0.00 | 0.00 | 0.00 | 37 | 1010.6 |
| 20260504182704 | 73 | 360 | 5.0 | 12.0 | 0.00 | 0.00 | 0.00 | 37 | 1010.6 |
| 20260504181803 | 72 | 360 | 5.0 | 15.0 | 0.00 | 0.00 | 0.00 | 38 | 1010.8 |
| 20260504181118 | 72 | 360 | 5.0 | 15.0 | 0.00 | 0.00 | 0.00 | 39 | 1010.9 |
| 20260504180003 | 72 | 360 | 5.0 | 11.0 | 0.00 | 0.00 | 0.00 | 38 | 1011.1 |
| 20260504175404 | 72 | 360 | 5.0 | 13.0 | 0.00 | 0.00 | 0.00 | 35 | 1011.3 |
| 20260504174719 | 72 | 360 | 6.0 | 14.0 | 0.00 | 0.00 | 0.00 | 39 | 1011.2 |
| 20260504173603 | 72 | 360 | 5.0 | 11.0 | 0.00 | 0.00 | 0.00 | 37 | 1011.5 |
| 20260504172918 | 72 | 360 | 6.0 | 18.0 | 0.00 | 0.00 | 0.00 | 40 | 1011.5 |
| 20260504172021 | 71 | 360 | 5.0 | 18.0 | 0.00 | 0.00 | 0.00 | 40 | 1011.5 |
| 20260504170904 | 71 | 360 | 5.0 | 11.0 | 0.00 | 0.00 | 0.00 | 39 | 1011.9 |
| 20260504150903 | 68 | 360 | 4.0 | 10.0 | 0.00 | 0.00 | 0.00 | 52 | 1013.1 |
| 20260504140904 | 64 | 360 | 4.0 | 11.0 | 0.00 | 0.00 | 0.00 | 58 | 1013.3 |
| 20260504130218 | 59 | 360 | 7.0 | 17.0 | 0.00 | 0.00 | 0.00 | 72 | 1013.9 |
| 20260504100220 | 49 | 360 | 1.0 | 4.0 | 0.00 | 0.00 | 0.00 | 83 | 1014.4 |
| 20260504081803 | 49 | 360 | 1.0 | 5.0 | 0.00 | 0.00 | 0.00 | 75 | 1014.5 |
| 20260504080903 | 50 | 360 | 2.0 | 6.0 | 0.00 | 0.00 | 0.00 | 74 | 1014.6 |
| 20260504050004 | 42 | 360 | 0.0 | 4.0 | 0.00 | 0.00 | 0.00 | 80 | 1014.2 |
| 20260504045403 | 42 | 360 | 0.0 | 4.0 | 0.00 | 0.00 | 0.00 | 81 | 1014.2 |
| 20260504044504 | 42 | 360 | 0.0 | 1.0 | 0.00 | 0.00 | 0.00 | 81 | 1014.2 |
| 20260504043603 | 42 | 0 | 0.0 | 0.0 | 0.00 | 0.00 | 0.00 | 81 | 1014.2 |
| 20260504042704 | 42 | 0 | 0.0 | 0.0 | 0.00 | 0.00 | 0.00 | 81 | 1014.1 |
| 20260504041804 | 42 | 0 | 0.0 | 0.0 | 0.00 | 0.00 | 0.00 | 80 | 1014.2 |
| 20260504041121 | 42 | 0 | 0.0 | 0.0 | 0.00 | 0.00 | 0.00 | 79 | 1014.1 |
| 20260504040218 | 42 | 0 | 0.0 | 0.0 | 0.00 | 0.00 | 0.00 | 79 | 1014.0 |
| 20260504035404 | 42 | 0 | 0.0 | 0.0 | 0.00 | 0.00 | 0.00 | 78 | 1013.9 |
| 20260504034503 | 42 | 0 | 0.0 | 0.0 | 0.00 | 0.00 | 0.00 | 78 | 1013.8 |
| 20260504033604 | 43 | 0 | 0.0 | 0.0 | 0.00 | 0.00 | 0.00 | 78 | 1013.7 |
| 20260504032703 | 43 | 360 | 0.0 | 1.0 | 0.00 | 0.00 | 0.00 | 77 | 1013.7 |
| 20260504031804 | 43 | 360 | 0.0 | 1.0 | 0.00 | 0.00 | 0.00 | 77 | 1013.6 |
| 20260504030903 | 43 | 360 | 0.0 | 1.0 | 0.00 | 0.00 | 0.00 | 77 | 1013.6 |
| 20260504030219 | 43 | 360 | 0.0 | 1.0 | 0.00 | 0.00 | 0.00 | 76 | 1013.6 |
| 20260504025404 | 44 | 360 | 0.0 | 1.0 | 0.00 | 0.00 | 0.00 | 75 | 1013.6 |
| 20260504024718 | 44 | 360 | 0.0 | 2.0 | 0.00 | 0.00 | 0.00 | 75 | 1013.6 |
| 20260504023603 | 44 | 0 | 0.0 | 0.0 | 0.00 | 0.00 | 0.00 | 73 | 1013.5 |
| 20260504022703 | 44 | 360 | 0.0 | 1.0 | 0.00 | 0.00 | 0.00 | 72 | 1013.6 |
| 20260504022020 | 44 | 360 | 0.0 | 1.0 | 0.00 | 0.00 | 0.00 | 72 | 1013.6 |
| 20260504020903 | 45 | 0 | 0.0 | 0.0 | 0.00 | 0.00 | 0.00 | 70 | 1013.7 |
| 20260504020220 | 45 | 360 | 0.0 | 1.0 | 0.00 | 0.00 | 0.00 | 69 | 1013.7 |
| 20260504015403 | 45 | 0 | 0.0 | 0.0 | 0.00 | 0.00 | 0.00 | 68 | 1013.6 |
| 20260504014504 | 45 | 360 | 0.0 | 1.0 | 0.00 | 0.00 | 0.00 | 67 | 1013.6 |
| 20260504013604 | 46 | 0 | 0.0 | 0.0 | 0.00 | 0.00 | 0.00 | 65 | 1013.5 |
| 20260504012704 | 46 | 0 | 0.0 | 0.0 | 0.00 | 0.00 | 0.00 | 63 | 1013.3 |
| 20260504011803 | 47 | 0 | 0.0 | 0.0 | 0.00 | 0.00 | 0.00 | 62 | 1013.2 |
| 20260504010904 | 47 | 360 | 0.0 | 1.0 | 0.00 | 0.00 | 0.00 | 61 | 1013.1 |
| 20260504010003 | 48 | 360 | 0.0 | 1.0 | 0.00 | 0.00 | 0.00 | 60 | 1013.1 |
| 20260504005403 | 48 | 0 | 0.0 | 0.0 | 0.00 | 0.00 | 0.00 | 57 | 1013.0 |
| 20260504004504 | 49 | 0 | 0.0 | 0.0 | 0.00 | 0.00 | 0.00 | 55 | 1012.9 |
| 20260504003604 | 50 | 0 | 0.0 | 0.0 | 0.00 | 0.00 | 0.00 | 53 | 1012.8 |
| 20260504002704 | 51 | 0 | 0.0 | 0.0 | 0.00 | 0.00 | 0.00 | 53 | 1012.5 |
| 20260504001804 | 52 | 0 | 0.0 | 0.0 | 0.00 | 0.00 | 0.00 | 51 | 1012.5 |
| 20260504000903 | 53 | 0 | 0.0 | 0.0 | 0.00 | 0.00 | 0.00 | 49 | 1012.4 |
| 20260504000003 | 54 | 360 | 1.0 | 3.0 | 0.00 | 0.00 | 0.00 | 47 | 1012.3 |
| 20260503235618 | 55 | 360 | 1.0 | 5.0 | 0.00 | 0.00 | 0.00 | 46 | 1012.3 |
| 20260503234504 | 56 | 360 | 1.0 | 4.0 | 0.00 | 0.00 | 0.00 | 44 | 1012.3 |
| 20260503233604 | 57 | 360 | 2.0 | 5.0 | 0.00 | 0.00 | 0.00 | 40 | 1012.2 |
| 20260503232920 | 57 | 360 | 3.0 | 9.0 | 0.00 | 0.00 | 0.00 | 39 | 1012.2 |
| 20260503232017 | 58 | 360 | 3.0 | 9.0 | 0.00 | 0.00 | 0.00 | 37 | 1012.2 |
| 20260503230904 | 59 | 360 | 3.0 | 9.0 | 0.00 | 0.00 | 0.00 | 35 | 1012.1 |
| 20260503230003 | 59 | 360 | 4.0 | 10.0 | 0.00 | 0.00 | 0.00 | 35 | 1012.0 |
| 20260503225403 | 60 | 360 | 4.0 | 11.0 | 0.00 | 0.00 | 0.00 | 35 | 1012.0 |
| 20260503224503 | 61 | 360 | 5.0 | 12.0 | 0.00 | 0.00 | 0.00 | 34 | 1012.0 |
| 20260503223604 | 61 | 360 | 6.0 | 15.0 | 0.00 | 0.00 | 0.00 | 33 | 1012.0 |
| 20260503222703 | 60 | 360 | 5.0 | 15.0 | 0.00 | 0.00 | 0.00 | 33 | 1012.0 |
| 20260503222017 | 60 | 360 | 6.0 | 13.0 | 0.00 | 0.00 | 0.00 | 35 | 1012.0 |
| 20260503220903 | 61 | 360 | 5.0 | 19.0 | 0.00 | 0.00 | 0.00 | 34 | 1012.0 |
| 20260503220003 | 61 | 360 | 7.0 | 15.0 | 0.00 | 0.00 | 0.00 | 36 | 1012.0 |
| 20260503215403 | 61 | 360 | 6.0 | 15.0 | 0.00 | 0.00 | 0.00 | 35 | 1012.0 |
| 20260503214503 | 61 | 360 | 6.0 | 16.0 | 0.00 | 0.00 | 0.00 | 34 | 1012.0 |
| 20260503213604 | 62 | 360 | 6.0 | 16.0 | 0.00 | 0.00 | 0.00 | 34 | 1012.0 |
| 20260503212703 | 62 | 360 | 5.0 | 15.0 | 0.00 | 0.00 | 0.00 | 37 | 1011.9 |
| 20260503211804 | 61 | 360 | 6.0 | 15.0 | 0.00 | 0.00 | 0.00 | 34 | 1011.9 |
| 20260503210904 | 62 | 360 | 5.0 | 17.0 | 0.00 | 0.00 | 0.00 | 35 | 1012.0 |
| 20260503210005 | 61 | 360 | 6.0 | 17.0 | 0.00 | 0.00 | 0.00 | 34 | 1012.0 |
| 20260503205403 | 61 | 360 | 7.0 | 16.0 | 0.00 | 0.00 | 0.00 | 34 | 1011.9 |
| 20260503204504 | 61 | 360 | 8.0 | 26.0 | 0.00 | 0.00 | 0.00 | 34 | 1012.1 |
| 20260503203603 | 61 | 360 | 7.0 | 15.0 | 0.00 | 0.00 | 0.00 | 34 | 1012.1 |
| 20260503202916 | 61 | 360 | 8.0 | 19.0 | 0.00 | 0.00 | 0.00 | 34 | 1012.1 |
| 20260503202019 | 61 | 360 | 8.0 | 18.0 | 0.00 | 0.00 | 0.00 | 34 | 1012.2 |
| 20260503200904 | 61 | 360 | 7.0 | 21.0 | 0.00 | 0.00 | 0.00 | 38 | 1012.0 |
| 20260503200003 | 61 | 360 | 7.0 | 16.0 | 0.00 | 0.00 | 0.00 | 35 | 1012.2 |
| 20260503195403 | 60 | 360 | 7.0 | 16.0 | 0.00 | 0.00 | 0.00 | 37 | 1012.4 |
| 20260503194503 | 61 | 360 | 7.0 | 16.0 | 0.00 | 0.00 | 0.00 | 36 | 1012.3 |
| 20260503193603 | 60 | 360 | 9.0 | 19.0 | 0.00 | 0.00 | 0.00 | 35 | 1012.3 |
| 20260503192703 | 61 | 331 | 8.0 | 19.0 | 0.00 | 0.00 | 0.00 | 34 | 1012.2 |
| 20260503191804 | 60 | 274 | 8.0 | 17.0 | 0.00 | 0.00 | 0.00 | 38 | 1012.3 |
| 20260503190903 | 60 | 359 | 7.0 | 19.0 | 0.00 | 0.00 | 0.00 | 37 | 1012.5 |
| 20260503190003 | 60 | 360 | 8.0 | 21.0 | 0.00 | 0.00 | 0.00 | 42 | 1012.6 |
| 20260503185404 | 59 | 360 | 8.0 | 21.0 | 0.00 | 0.00 | 0.00 | 38 | 1012.7 |